createdAt,value
2023-05-13T00:02:46.094Z,3.50
2023-05-13T00:05:53.755Z,3.70
2023-05-13T00:09:00.739Z,3.50
2023-05-13T00:12:09.104Z,3.60
2023-05-13T00:15:16.784Z,3.90
2023-05-13T00:18:24.007Z,3.40
2023-05-13T00:21:32.351Z,3.70
2023-05-13T00:24:40.063Z,3.30
2023-05-13T00:27:47.043Z,3.80
2023-05-13T00:30:54.589Z,4.00
2023-05-13T00:34:03.604Z,3.90
2023-05-13T00:37:10.456Z,4.00
2023-05-13T00:40:13.079Z,3.80
2023-05-13T00:43:21.919Z,3.80
2023-05-13T00:46:29.873Z,3.60
2023-05-13T00:49:36.737Z,4.10
2023-05-13T00:52:46.304Z,4.20
2023-05-13T00:55:53.694Z,3.80
2023-05-13T00:59:00.654Z,4.10
2023-05-13T01:02:10.827Z,4.10
2023-05-13T01:05:17.807Z,4.40
2023-05-13T01:08:26.093Z,3.70
2023-05-13T01:11:33.768Z,4.00
2023-05-13T01:14:43.451Z,4.00
2023-05-13T01:16:55.814Z,3.40
2023-05-13T01:19:54.001Z,3.60
2023-05-13T01:23:03.907Z,4.40
2023-05-13T01:26:12.212Z,3.70
2023-05-13T01:29:19.423Z,4.10
2023-05-13T01:32:26.290Z,4.80
2023-05-13T01:35:35.610Z,4.00
2023-05-13T01:38:43.312Z,4.00
2023-05-13T01:41:50.602Z,4.10
2023-05-13T01:44:59.974Z,4.00
2023-05-13T01:48:08.278Z,4.10
2023-05-13T01:51:15.545Z,4.10
2023-05-13T01:54:24.250Z,4.20
2023-05-13T01:57:32.166Z,4.30
2023-05-13T02:00:38.923Z,4.40
2023-05-13T02:03:48.250Z,4.40
2023-05-13T02:06:55.433Z,3.90
2023-05-13T02:10:03.097Z,4.60
2023-05-13T02:13:11.740Z,4.30
2023-05-13T02:16:20.226Z,4.60
2023-05-13T02:19:27.510Z,4.50
2023-05-13T02:22:35.203Z,4.60
2023-05-13T02:25:43.905Z,4.20
2023-05-13T02:28:51.213Z,4.80
2023-05-13T02:31:58.245Z,4.60
2023-05-13T02:35:07.594Z,4.30
2023-05-13T02:38:14.530Z,4.80
2023-05-13T02:41:22.727Z,4.10
2023-05-13T02:44:31.578Z,4.50
2023-05-13T02:47:38.827Z,5.00
2023-05-13T02:50:46.063Z,4.70
2023-05-13T02:53:55.530Z,4.80
2023-05-13T02:57:03.428Z,5.10
2023-05-13T03:00:10.355Z,5.10
2023-05-13T03:03:18.679Z,4.90
2023-05-13T03:06:27.331Z,5.20
2023-05-13T03:09:35.142Z,5.20
2023-05-13T03:12:42.467Z,5.00
2023-05-13T03:15:51.650Z,4.80
2023-05-13T03:18:58.925Z,5.00
2023-05-13T03:22:06.367Z,4.60
2023-05-13T03:25:14.742Z,4.70
2023-05-13T03:28:22.236Z,5.40
2023-05-13T03:31:29.740Z,4.60
2023-05-13T03:34:38.534Z,4.70
2023-05-13T03:37:45.767Z,5.50
2023-05-13T03:40:53.551Z,4.90
2023-05-13T03:44:01.042Z,4.60
2023-05-13T03:47:10.196Z,4.80
2023-05-13T03:50:17.649Z,5.00
2023-05-13T03:53:24.996Z,5.20
2023-05-13T03:56:34.022Z,5.10
2023-05-13T03:59:42.144Z,4.70
2023-05-13T04:02:49.707Z,4.90
2023-05-13T04:05:59.079Z,6.10
2023-05-13T04:09:06.546Z,4.50
2023-05-13T04:12:13.916Z,5.10
2023-05-13T04:15:24.055Z,5.50
2023-05-13T04:18:31.313Z,4.90
2023-05-13T04:21:38.789Z,5.10
2023-05-13T04:24:47.162Z,5.10
2023-05-13T04:27:54.901Z,4.40
2023-05-13T04:31:01.845Z,5.20
2023-05-13T04:34:10.276Z,6.20
2023-05-13T04:37:19.191Z,5.00
2023-05-13T04:40:26.954Z,4.90
2023-05-13T04:43:34.740Z,4.70
2023-05-13T04:46:43.158Z,4.80
2023-05-13T04:49:51.317Z,5.10
2023-05-13T04:52:58.670Z,4.60
2023-05-13T04:56:07.871Z,4.80
2023-05-13T04:59:14.688Z,4.30
2023-05-13T05:02:22.908Z,4.60
2023-05-13T05:05:31.638Z,4.40
2023-05-13T05:08:39.454Z,4.30
2023-05-13T05:11:46.621Z,3.70
2023-05-13T05:14:54.420Z,3.90
2023-05-13T05:18:04.265Z,3.60
2023-05-13T05:21:12.330Z,3.50
2023-05-13T05:24:19.937Z,3.30
2023-05-13T05:27:29.443Z,3.10
2023-05-13T05:30:36.972Z,2.90
2023-05-13T05:33:44.667Z,3.00
2023-05-13T05:36:53.867Z,3.00
2023-05-13T05:40:00.963Z,2.80
2023-05-13T05:43:08.253Z,3.70
2023-05-13T05:46:16.596Z,2.90
2023-05-13T05:49:24.365Z,3.40
2023-05-13T05:52:31.569Z,3.20
2023-05-13T05:55:39.319Z,3.00
2023-05-13T05:58:40.674Z,3.30
2023-05-13T06:01:41.730Z,3.50
2023-05-13T06:04:48.713Z,3.30
2023-05-13T06:07:58.226Z,3.60
2023-05-13T06:11:05.884Z,3.90
2023-05-13T06:14:13.719Z,3.50
2023-05-13T06:17:23.199Z,3.50
2023-05-13T06:20:30.424Z,3.40
2023-05-13T06:23:37.911Z,3.40
2023-05-13T06:26:46.878Z,3.70
2023-05-13T06:29:54.873Z,3.70
2023-05-13T06:33:03.280Z,3.40
2023-05-13T06:36:10.892Z,3.40
2023-05-13T06:39:20.233Z,3.60
2023-05-13T06:42:27.594Z,3.90
2023-05-13T06:45:35.940Z,3.70
2023-05-13T06:48:44.791Z,3.70
2023-05-13T06:51:52.493Z,3.40
2023-05-13T06:55:00.483Z,4.10
2023-05-13T06:58:08.979Z,3.60
2023-05-13T07:01:16.613Z,3.50
2023-05-13T07:04:24.256Z,3.20
2023-05-13T07:07:33.182Z,3.60
2023-05-13T07:10:40.571Z,3.50
2023-05-13T07:13:48.618Z,3.50
2023-05-13T07:16:56.242Z,3.40
2023-05-13T07:20:05.221Z,3.30
2023-05-13T07:23:13.129Z,4.00
2023-05-13T07:26:20.992Z,3.30
2023-05-13T07:29:29.493Z,3.20
2023-05-13T07:32:37.572Z,3.60
2023-05-13T07:35:45.545Z,3.60
2023-05-13T07:38:54.377Z,3.70
2023-05-13T07:42:02.023Z,3.60
2023-05-13T07:45:09.932Z,3.70
2023-05-13T07:48:18.846Z,3.50
2023-05-13T07:51:27.179Z,3.70
2023-05-13T07:54:34.909Z,3.70
2023-05-13T07:57:44.204Z,3.80
2023-05-13T08:00:51.684Z,3.40
2023-05-13T08:03:59.308Z,3.70
2023-05-13T08:07:06.435Z,3.40
2023-05-13T08:10:08.009Z,4.30
2023-05-13T08:13:16.497Z,4.10
2023-05-13T08:16:23.861Z,3.40
2023-05-13T08:19:33.151Z,3.60
2023-05-13T08:22:41.236Z,3.80
2023-05-13T08:25:49.088Z,3.20
2023-05-13T08:28:58.932Z,3.10
2023-05-13T08:32:06.340Z,3.50
2023-05-13T08:35:15.127Z,3.30
2023-05-13T08:38:24.916Z,3.50
2023-05-13T08:41:31.997Z,2.70
2023-05-13T08:44:39.932Z,2.90
2023-05-13T08:47:47.508Z,3.20
2023-05-13T08:50:56.440Z,3.70
2023-05-13T08:54:04.193Z,3.40
2023-05-13T08:57:11.502Z,3.10
2023-05-13T09:00:21.927Z,3.00
2023-05-13T09:03:29.825Z,2.80
2023-05-13T09:06:37.714Z,3.00
2023-05-13T09:09:46.791Z,3.10
2023-05-13T09:12:54.633Z,2.40
2023-05-13T09:16:02.351Z,2.80
2023-05-13T09:19:11.406Z,2.80
2023-05-13T09:22:18.894Z,3.20
2023-05-13T09:25:26.892Z,2.50
2023-05-13T09:28:35.461Z,2.40
2023-05-13T09:31:44.836Z,2.90
2023-05-13T09:34:52.928Z,2.30
2023-05-13T09:38:01.216Z,2.30
2023-05-13T09:41:10.423Z,2.10
2023-05-13T09:44:18.292Z,2.30
2023-05-13T09:47:26.163Z,2.10
2023-05-13T09:50:34.778Z,2.00
2023-05-13T09:53:42.790Z,1.90
2023-05-13T09:56:50.904Z,2.20
2023-05-13T10:00:00.156Z,1.90
2023-05-13T10:03:08.373Z,2.30
2023-05-13T10:06:16.048Z,2.10
2023-05-13T10:09:23.469Z,1.90
2023-05-13T10:12:32.659Z,2.20
2023-05-13T10:15:41.206Z,1.70
2023-05-13T10:18:48.160Z,2.00
2023-05-13T10:21:57.433Z,2.10
2023-05-13T10:25:04.968Z,2.00
2023-05-13T10:28:13.192Z,2.10
2023-05-13T10:31:22.624Z,2.50
2023-05-13T10:34:30.569Z,2.10
2023-05-13T10:37:37.530Z,2.00
2023-05-13T10:40:46.823Z,2.00
2023-05-13T10:43:54.397Z,2.10
2023-05-13T10:47:01.776Z,1.90
2023-05-13T10:50:10.838Z,2.00
2023-05-13T10:53:18.926Z,2.40
2023-05-13T10:56:25.950Z,2.00
2023-05-13T10:59:34.193Z,2.10
2023-05-13T11:02:43.734Z,1.50
2023-05-13T11:05:51.539Z,1.90
2023-05-13T11:08:58.918Z,1.90
2023-05-13T11:12:08.706Z,1.50
2023-05-13T11:15:16.274Z,1.40
2023-05-13T11:18:23.791Z,1.70
2023-05-13T11:21:33.500Z,1.50
2023-05-13T11:24:40.963Z,1.40
2023-05-13T11:27:49.152Z,1.70
2023-05-13T11:30:57.982Z,1.60
2023-05-13T11:34:05.404Z,1.20
2023-05-13T11:37:13.062Z,1.20
2023-05-13T11:40:21.294Z,1.40
2023-05-13T11:43:30.363Z,1.60
2023-05-13T11:46:38.413Z,1.60
2023-05-13T11:49:45.952Z,1.50
2023-05-13T11:52:54.852Z,1.20
2023-05-13T11:56:02.555Z,1.60
2023-05-13T11:59:10.608Z,2.10
2023-05-13T12:02:19.792Z,1.60
2023-05-13T12:05:28.207Z,1.60
2023-05-13T12:08:36.010Z,1.20
2023-05-13T12:11:45.405Z,1.60
2023-05-13T12:14:53.268Z,1.10
2023-05-13T12:18:00.803Z,1.30
2023-05-13T12:21:08.300Z,1.10
2023-05-13T12:24:17.826Z,1.30
2023-05-13T12:27:25.878Z,1.30
2023-05-13T12:30:33.753Z,1.70
2023-05-13T12:33:43.158Z,1.20
2023-05-13T12:36:51.731Z,1.20
2023-05-13T12:39:59.340Z,1.30
2023-05-13T12:43:08.784Z,1.30
2023-05-13T12:46:16.746Z,1.20
2023-05-13T12:49:23.822Z,1.30
2023-05-13T12:52:33.502Z,1.10
2023-05-13T12:55:40.885Z,1.30
2023-05-13T12:58:48.724Z,1.00
2023-05-13T13:01:57.843Z,1.40
2023-05-13T13:05:06.737Z,1.00
2023-05-13T13:08:14.438Z,1.40
2023-05-13T13:11:21.734Z,1.70
2023-05-13T13:14:30.572Z,1.10
2023-05-13T13:17:38.146Z,1.20
2023-05-13T13:20:49.706Z,1.30
2023-05-13T13:23:47.984Z,1.20
2023-05-13T13:26:56.600Z,1.40
2023-05-13T13:30:03.571Z,1.40
2023-05-13T13:33:13.282Z,1.30
2023-05-13T13:36:20.324Z,1.30
2023-05-13T13:39:28.431Z,1.20
2023-05-13T13:42:44.124Z,1.40
2023-05-13T13:45:41.411Z,1.60
2023-05-13T13:48:48.713Z,1.20
2023-05-13T13:51:56.373Z,1.60
2023-05-13T13:55:04.789Z,1.40
2023-05-13T13:58:12.907Z,1.10
2023-05-13T14:01:20.437Z,1.60
2023-05-13T14:04:30.407Z,1.20
2023-05-13T14:07:38.035Z,1.20
2023-05-13T14:10:45.589Z,1.20
2023-05-13T14:13:54.272Z,1.30
2023-05-13T14:17:02.258Z,1.60
2023-05-13T14:20:10.711Z,1.60
2023-05-13T14:23:19.124Z,1.20
2023-05-13T14:26:27.093Z,1.30
2023-05-13T14:29:34.838Z,1.30
2023-05-13T14:32:42.452Z,1.30
2023-05-13T14:35:51.699Z,1.30
2023-05-13T14:38:59.895Z,1.40
2023-05-13T14:42:07.673Z,1.40
2023-05-13T14:45:18.602Z,1.20
2023-05-13T14:48:27.683Z,1.60
2023-05-13T14:51:35.014Z,1.60
2023-05-13T14:54:44.010Z,1.40
2023-05-13T14:57:52.204Z,1.20
2023-05-13T15:00:59.907Z,1.90
2023-05-13T15:04:09.175Z,1.50
2023-05-13T15:07:17.499Z,1.70
2023-05-13T15:10:25.077Z,2.40
2023-05-13T15:13:32.768Z,1.50
2023-05-13T15:16:42.493Z,1.60
2023-05-13T15:19:50.217Z,1.70
2023-05-13T15:22:58.537Z,1.30
2023-05-13T15:26:07.245Z,1.40
2023-05-13T15:29:15.050Z,1.60
2023-05-13T15:32:22.325Z,1.30
2023-05-13T15:35:31.348Z,1.60
2023-05-13T15:38:38.814Z,1.40
2023-05-13T15:41:45.852Z,1.60
2023-05-13T15:44:54.985Z,1.70
2023-05-13T15:48:02.253Z,1.60
2023-05-13T15:51:10.366Z,1.70
2023-05-13T15:54:19.618Z,1.30
2023-05-13T15:57:27.191Z,1.40
2023-05-13T16:00:35.222Z,1.60
2023-05-13T16:03:42.645Z,1.60
2023-05-13T16:06:51.458Z,1.50
2023-05-13T16:09:59.616Z,1.30
2023-05-13T16:13:07.465Z,2.00
2023-05-13T16:16:16.972Z,1.40
2023-05-13T16:19:24.471Z,1.70
2023-05-13T16:22:32.870Z,1.40
2023-05-13T16:25:41.775Z,1.40
2023-05-13T16:28:49.974Z,1.40
2023-05-13T16:31:58.113Z,2.20
2023-05-13T16:35:06.996Z,1.60
2023-05-13T16:38:14.879Z,1.30
2023-05-13T16:41:22.265Z,1.80
2023-05-13T16:44:30.257Z,1.40
2023-05-13T16:47:39.090Z,2.10
2023-05-13T16:50:47.013Z,1.60
2023-05-13T16:53:54.373Z,1.90
2023-05-13T16:57:03.781Z,1.50
2023-05-13T17:00:11.675Z,1.50
2023-05-13T17:03:19.206Z,1.80
2023-05-13T17:06:29.155Z,1.40
2023-05-13T17:09:39.644Z,1.50
2023-05-13T17:12:47.185Z,1.80
2023-05-13T17:15:56.264Z,1.40
2023-05-13T17:19:03.812Z,1.60
2023-05-13T17:22:12.393Z,1.70
2023-05-13T17:25:20.438Z,1.80
2023-05-13T17:28:29.859Z,2.00
2023-05-13T17:31:37.589Z,1.90
2023-05-13T17:34:45.628Z,1.60
2023-05-13T17:37:54.475Z,1.40
2023-05-13T17:41:02.301Z,1.60
2023-05-13T17:44:09.756Z,1.70
2023-05-13T17:47:19.591Z,1.50
2023-05-13T17:50:27.490Z,1.60
2023-05-13T17:53:36.146Z,1.90
2023-05-13T17:56:37.632Z,2.10
2023-05-13T17:59:45.222Z,1.80
2023-05-13T18:02:52.992Z,1.80
2023-05-13T18:06:01.157Z,1.70
2023-05-13T18:09:10.328Z,1.90
2023-05-13T18:12:17.732Z,2.00
2023-05-13T18:15:25.220Z,1.50
2023-05-13T18:18:34.452Z,1.90
2023-05-13T18:21:42.670Z,2.00
2023-05-13T18:24:50.907Z,1.90
2023-05-13T18:28:00.372Z,1.60
2023-05-13T18:31:07.810Z,2.00
2023-05-13T18:34:15.734Z,1.80
2023-05-13T18:37:26.164Z,2.00
2023-05-13T18:40:33.175Z,2.20
2023-05-13T18:43:41.497Z,1.90
2023-05-13T18:46:49.909Z,1.80
2023-05-13T18:49:57.887Z,1.90
2023-05-13T18:53:05.465Z,2.10
2023-05-13T18:56:13.404Z,2.10
2023-05-13T18:59:22.215Z,2.00
2023-05-13T19:02:29.461Z,2.30
2023-05-13T19:05:37.331Z,2.20
2023-05-13T19:08:46.572Z,2.30
2023-05-13T19:11:54.309Z,2.60
2023-05-13T19:15:02.089Z,2.40
2023-05-13T19:18:10.731Z,2.30
2023-05-13T19:21:19.095Z,8.70
2023-05-13T19:24:27.176Z,2.20
2023-05-13T19:27:36.974Z,2.60
2023-05-13T19:30:44.074Z,2.50
2023-05-13T19:33:51.659Z,3.40
2023-05-13T19:36:59.125Z,2.50
2023-05-13T19:40:08.571Z,2.40
2023-05-13T19:43:16.257Z,2.80
2023-05-13T19:46:24.223Z,2.50
2023-05-13T19:49:33.524Z,3.40
2023-05-13T19:52:40.638Z,2.70
2023-05-13T19:55:47.654Z,3.00
2023-05-13T19:58:56.427Z,2.70
2023-05-13T20:02:03.946Z,2.70
2023-05-13T20:05:11.697Z,2.80
2023-05-13T20:08:20.296Z,2.70
2023-05-13T20:11:28.359Z,2.80
2023-05-13T20:14:35.749Z,3.10
2023-05-13T20:17:43.859Z,3.00
2023-05-13T20:20:52.598Z,2.80
2023-05-13T20:24:00.069Z,3.00
2023-05-13T20:27:09.448Z,3.20
2023-05-13T20:30:18.899Z,3.10
2023-05-13T20:33:26.910Z,3.10
2023-05-13T20:36:34.999Z,3.10
2023-05-13T20:39:43.377Z,3.30
2023-05-13T20:42:50.856Z,3.00
2023-05-13T20:45:58.385Z,3.10
2023-05-13T20:49:07.068Z,3.00
2023-05-13T20:52:14.172Z,2.80
2023-05-13T20:55:22.186Z,3.50
2023-05-13T20:58:30.982Z,3.20
2023-05-13T21:01:38.467Z,2.90
2023-05-13T21:04:46.101Z,3.10
2023-05-13T21:07:53.193Z,2.80
2023-05-13T21:11:02.376Z,2.80
2023-05-13T21:14:10.008Z,3.00
2023-05-13T21:17:17.613Z,2.80
2023-05-13T21:20:26.539Z,2.60
2023-05-13T21:23:34.206Z,2.80
2023-05-13T21:26:41.437Z,2.70
2023-05-13T21:29:50.028Z,2.60
2023-05-13T21:32:58.305Z,2.70
2023-05-13T21:36:05.994Z,2.30
2023-05-13T21:39:15.101Z,2.70
2023-05-13T21:42:22.426Z,2.60
2023-05-13T21:45:29.768Z,2.00
2023-05-13T21:48:37.664Z,2.20
2023-05-13T21:51:46.929Z,2.10
2023-05-13T21:54:54.946Z,1.90
2023-05-13T21:58:01.910Z,2.20
2023-05-13T22:01:11.324Z,2.60
2023-05-13T22:04:19.003Z,2.00
2023-05-13T22:07:26.252Z,2.30
2023-05-13T22:10:35.532Z,2.20
2023-05-13T22:13:42.990Z,2.10
2023-05-13T22:17:04.815Z,1.90
2023-05-13T22:19:56.087Z,2.20
2023-05-13T22:23:03.631Z,2.20
2023-05-13T22:26:11.557Z,2.40
2023-05-13T22:29:19.371Z,2.00
2023-05-13T22:32:28.631Z,2.30
2023-05-13T22:35:36.095Z,2.10
2023-05-13T22:38:43.825Z,2.20
2023-05-13T22:41:52.123Z,2.30
2023-05-13T22:44:59.807Z,2.30
2023-05-13T22:48:06.642Z,2.30
2023-05-13T22:51:16.019Z,2.40
2023-05-13T22:54:24.029Z,3.00
2023-05-13T22:57:31.956Z,2.40
2023-05-13T23:00:41.228Z,3.10
2023-05-13T23:03:48.676Z,3.00
2023-05-13T23:06:56.513Z,2.90
2023-05-13T23:10:04.234Z,3.50
2023-05-13T23:13:13.460Z,3.60
2023-05-13T23:16:21.313Z,3.30
2023-05-13T23:19:29.407Z,3.20
2023-05-13T23:22:38.951Z,3.70
2023-05-13T23:25:46.597Z,3.10
2023-05-13T23:28:53.509Z,3.60
2023-05-13T23:32:04.477Z,3.50
2023-05-13T23:35:03.284Z,3.20
2023-05-13T23:38:10.107Z,3.30
2023-05-13T23:41:19.683Z,3.50
2023-05-13T23:44:27.600Z,3.70
2023-05-13T23:47:34.568Z,3.30
2023-05-13T23:50:42.220Z,3.20
2023-05-13T23:53:51.335Z,3.30
2023-05-13T23:56:59.787Z,3.90
